createdAt,value
2022-12-28T00:01:38.903Z,93.75
2022-12-28T00:04:15.439Z,93.87
2022-12-28T00:06:42.037Z,93.69
2022-12-28T00:09:10.659Z,93.80
2022-12-28T00:11:55.445Z,93.80
2022-12-28T00:14:21.787Z,94.06
2022-12-28T00:16:48.343Z,94.22
2022-12-28T00:19:16.510Z,94.13
2022-12-28T00:21:48.939Z,94.25
2022-12-28T00:24:25.371Z,94.20
2022-12-28T00:26:52.275Z,94.68
2022-12-28T00:29:23.243Z,94.19
2022-12-28T00:31:50.001Z,94.58
2022-12-28T00:34:16.547Z,94.23
2022-12-28T00:37:08.483Z,94.76
2022-12-28T00:39:38.376Z,94.57
2022-12-28T00:42:11.124Z,94.85
2022-12-28T00:44:39.001Z,94.45
2022-12-28T00:47:05.449Z,94.30
2022-12-28T00:49:31.807Z,94.38
2022-12-28T00:51:58.722Z,94.20
2022-12-28T00:54:25.078Z,94.46
2022-12-28T00:56:51.558Z,94.97
2022-12-28T00:59:23.145Z,94.86
2022-12-28T01:01:51.650Z,94.32
2022-12-28T01:04:18.078Z,94.35
2022-12-28T01:06:45.444Z,94.22
2022-12-28T01:09:16.929Z,94.21
2022-12-28T01:11:43.362Z,94.42
2022-12-28T01:14:09.817Z,94.29
2022-12-28T01:16:43.320Z,94.62
2022-12-28T01:19:18.018Z,94.33
2022-12-28T01:21:44.377Z,93.58
2022-12-28T01:24:12.865Z,94.01
2022-12-28T01:26:39.339Z,94.34
2022-12-28T01:29:05.880Z,94.24
2022-12-28T01:31:57.074Z,94.09
2022-12-28T01:34:23.630Z,93.82
2022-12-28T01:36:49.973Z,94.15
2022-12-28T01:39:16.370Z,94.11
2022-12-28T01:41:42.932Z,94.44
2022-12-28T01:44:10.383Z,94.09
2022-12-28T01:46:45.704Z,94.60
2022-12-28T01:49:24.053Z,94.26
2022-12-28T01:51:56.524Z,94.35
2022-12-28T01:54:31.069Z,94.12
2022-12-28T01:57:00.703Z,94.81
2022-12-28T01:59:39.661Z,94.80
2022-12-28T02:02:06.403Z,94.89
2022-12-28T02:04:33.066Z,94.57
2022-12-28T02:06:59.483Z,94.99
2022-12-28T02:10:40.749Z,95.54
2022-12-28T02:12:33.765Z,95.55
2022-12-28T02:15:01.416Z,96.00
2022-12-28T02:17:34.887Z,95.95
2022-12-28T02:20:06.191Z,95.99
2022-12-28T02:23:06.292Z,96.32
2022-12-28T02:25:57.553Z,96.26
2022-12-28T02:29:02.073Z,96.27
2022-12-28T02:31:41.979Z,96.30
2022-12-28T02:34:25.227Z,96.54
2022-12-28T02:37:30.328Z,96.86
2022-12-28T02:40:05.499Z,96.69
2022-12-28T02:42:53.417Z,96.89
2022-12-28T02:46:00.310Z,97.42
2022-12-28T02:49:12.494Z,97.11
2022-12-28T02:52:00.857Z,96.94
2022-12-28T02:54:59.296Z,97.35
2022-12-28T02:58:02.923Z,97.57
2022-12-28T03:01:04.622Z,97.38
2022-12-28T03:03:34.703Z,97.55
2022-12-28T03:10:27.175Z,98.04
2022-12-28T03:13:44.596Z,97.93
2022-12-28T03:16:14.439Z,98.36
2022-12-28T03:19:03.053Z,98.05
2022-12-28T03:21:56.000Z,98.25
2022-12-28T03:24:56.103Z,98.46
2022-12-28T03:27:52.143Z,98.43
2022-12-28T03:30:39.552Z,98.40
2022-12-28T03:33:07.988Z,98.60
2022-12-28T03:35:47.540Z,98.77
2022-12-28T03:38:27.529Z,98.94
2022-12-28T03:41:07.855Z,98.74
2022-12-28T03:43:54.601Z,99.00
2022-12-28T03:46:44.652Z,99.04
2022-12-28T03:49:20.376Z,98.82
2022-12-28T03:51:48.168Z,99.36
2022-12-28T03:54:21.298Z,99.35
2022-12-28T03:56:50.235Z,99.30
2022-12-28T03:59:18.082Z,99.18
2022-12-28T04:01:45.071Z,99.61
2022-12-28T04:04:23.655Z,99.70
2022-12-28T04:06:50.050Z,99.57
2022-12-28T04:09:20.492Z,99.81
2022-12-28T04:11:46.866Z,100.00
2022-12-28T04:14:15.394Z,99.84
2022-12-28T04:16:45.921Z,99.88
2022-12-28T04:19:17.623Z,99.81
2022-12-28T04:21:53.154Z,100.00
2022-12-28T04:24:29.877Z,100.00
2022-12-28T04:27:10.270Z,100.00
2022-12-28T04:29:36.644Z,100.00
2022-12-28T04:32:28.814Z,100.00
2022-12-28T04:34:59.289Z,100.00
2022-12-28T04:37:38.920Z,100.00
2022-12-28T04:40:07.021Z,100.00
2022-12-28T04:42:44.619Z,100.00
2022-12-28T04:45:11.169Z,100.00
2022-12-28T04:47:37.545Z,100.00
2022-12-28T04:50:18.248Z,100.00
2022-12-28T04:52:59.116Z,100.00
2022-12-28T04:55:32.232Z,100.00
2022-12-28T04:58:00.269Z,100.00
2022-12-28T05:00:36.962Z,100.00
2022-12-28T05:03:03.629Z,100.00
2022-12-28T05:05:40.638Z,100.00
2022-12-28T05:08:07.140Z,100.00
2022-12-28T05:10:41.750Z,100.00
2022-12-28T05:13:09.189Z,100.00
2022-12-28T05:15:43.438Z,100.00
2022-12-28T05:18:09.820Z,100.00
2022-12-28T05:20:36.164Z,100.00
2022-12-28T05:23:15.014Z,100.00
2022-12-28T05:25:53.453Z,100.00
2022-12-28T05:28:26.308Z,100.00
2022-12-28T05:31:01.601Z,100.00
2022-12-28T05:33:33.590Z,100.00
2022-12-28T05:36:22.833Z,100.00
2022-12-28T05:38:49.756Z,100.00
2022-12-28T05:41:19.298Z,100.00
2022-12-28T05:43:46.873Z,100.00
2022-12-28T05:46:26.786Z,100.00
2022-12-28T05:48:55.393Z,100.00
2022-12-28T05:51:23.703Z,100.00
2022-12-28T05:53:50.464Z,100.00
2022-12-28T05:56:24.993Z,100.00
2022-12-28T05:59:00.269Z,100.00
2022-12-28T06:01:30.240Z,100.00
2022-12-28T06:04:08.179Z,100.00
2022-12-28T06:06:36.199Z,100.00
2022-12-28T06:09:03.744Z,100.00
2022-12-28T06:11:32.039Z,100.00
2022-12-28T06:14:06.702Z,100.00
2022-12-28T06:16:38.463Z,100.00
2022-12-28T06:19:07.356Z,100.00
2022-12-28T06:21:36.283Z,100.00
2022-12-28T06:24:06.057Z,100.00
2022-12-28T06:26:35.212Z,100.00
2022-12-28T06:29:02.093Z,100.00
2022-12-28T06:31:40.031Z,100.00
2022-12-28T06:34:08.449Z,100.00
2022-12-28T06:36:38.007Z,100.00
2022-12-28T06:39:07.177Z,100.00
2022-12-28T06:41:34.676Z,100.00
2022-12-28T06:44:01.204Z,100.00
2022-12-28T06:46:30.473Z,100.00
2022-12-28T06:48:57.512Z,100.00
2022-12-28T06:51:40.431Z,100.00
2022-12-28T06:54:07.837Z,100.00
2022-12-28T06:56:39.156Z,100.00
2022-12-28T06:59:38.540Z,99.91
2022-12-28T07:02:06.707Z,100.00
2022-12-28T07:04:33.153Z,100.00
2022-12-28T07:06:59.505Z,99.91
2022-12-28T07:09:30.855Z,100.00
2022-12-28T07:11:57.201Z,99.90
2022-12-28T07:14:29.845Z,100.00
2022-12-28T07:16:56.224Z,100.00
2022-12-28T07:19:22.589Z,100.00
2022-12-28T07:21:50.124Z,100.00
2022-12-28T07:24:58.244Z,100.00
2022-12-28T07:27:37.133Z,100.00
2022-12-28T07:30:13.218Z,100.00
2022-12-28T07:32:39.735Z,100.00
2022-12-28T07:35:43.545Z,99.80
2022-12-28T07:38:09.866Z,99.55
2022-12-28T07:40:41.562Z,100.00
2022-12-28T07:43:07.929Z,99.53
2022-12-28T07:45:36.469Z,99.75
2022-12-28T07:48:02.845Z,99.95
2022-12-28T07:50:32.868Z,99.37
2022-12-28T07:53:03.923Z,99.75
2022-12-28T07:55:32.026Z,99.49
2022-12-28T07:58:06.407Z,99.65
2022-12-28T08:00:32.764Z,99.45
2022-12-28T08:02:59.112Z,99.05
2022-12-28T08:05:25.471Z,98.87
2022-12-28T08:07:52.367Z,99.56
2022-12-28T08:10:18.737Z,98.61
2022-12-28T08:12:46.081Z,99.00
2022-12-28T08:15:12.441Z,99.03
2022-12-28T08:17:38.785Z,98.87
2022-12-28T08:20:09.621Z,98.72
2022-12-28T08:22:35.977Z,98.97
2022-12-28T08:25:02.359Z,98.44
2022-12-28T08:27:32.248Z,98.67
2022-12-28T08:30:04.560Z,98.61
2022-12-28T08:32:30.944Z,98.63
2022-12-28T08:35:04.123Z,98.51
2022-12-28T08:37:30.475Z,98.89
2022-12-28T08:40:29.883Z,98.47
2022-12-28T08:42:58.464Z,99.13
2022-12-28T08:45:29.071Z,99.18
2022-12-28T08:47:55.548Z,99.42
2022-12-28T08:50:29.559Z,99.23
2022-12-28T08:52:57.857Z,99.37
2022-12-28T08:55:26.257Z,99.76
2022-12-28T08:57:52.603Z,99.45
2022-12-28T09:00:19.174Z,99.43
2022-12-28T09:02:45.664Z,99.37
2022-12-28T09:05:12.119Z,99.60
2022-12-28T09:07:38.466Z,99.17
2022-12-28T09:10:05.491Z,99.17
2022-12-28T09:12:31.930Z,99.12
2022-12-28T09:14:58.290Z,99.48
2022-12-28T09:17:24.770Z,99.14
2022-12-28T09:20:05.538Z,99.13
2022-12-28T09:22:33.997Z,98.94
2022-12-28T09:25:01.042Z,98.93
2022-12-28T09:27:34.618Z,99.40
2022-12-28T09:30:00.980Z,99.62
2022-12-28T09:32:27.363Z,98.96
2022-12-28T09:34:53.736Z,99.92
2022-12-28T09:37:28.342Z,99.49
2022-12-28T09:40:01.028Z,99.34
2022-12-28T09:42:30.529Z,99.78
2022-12-28T09:45:02.698Z,99.63
2022-12-28T09:47:45.882Z,99.65
2022-12-28T09:50:19.683Z,100.00
2022-12-28T09:53:15.248Z,100.00
2022-12-28T09:55:48.410Z,100.00
2022-12-28T09:58:16.708Z,100.00
2022-12-28T10:00:52.560Z,100.00
2022-12-28T10:03:40.522Z,100.00
2022-12-28T10:06:27.113Z,100.00
2022-12-28T10:08:56.438Z,100.00
2022-12-28T10:11:27.085Z,100.00
2022-12-28T10:14:03.845Z,100.00
2022-12-28T10:16:33.111Z,100.00
2022-12-28T10:19:00.402Z,100.00
2022-12-28T10:21:32.946Z,100.00
2022-12-28T10:27:06.650Z,100.00
2022-12-28T10:29:33.880Z,100.00
2022-12-28T10:32:12.423Z,100.00
2022-12-28T10:34:58.492Z,100.00
2022-12-28T10:37:27.560Z,100.00
2022-12-28T10:39:59.697Z,100.00
2022-12-28T10:42:58.060Z,100.00
2022-12-28T10:45:32.423Z,100.00
2022-12-28T10:47:58.987Z,100.00
2022-12-28T10:50:42.327Z,100.00
2022-12-28T10:53:40.132Z,100.00
2022-12-28T10:56:12.479Z,100.00
2022-12-28T10:58:49.937Z,100.00
2022-12-28T11:01:28.577Z,100.00
2022-12-28T11:03:55.194Z,100.00
2022-12-28T11:06:30.491Z,100.00
2022-12-28T11:09:05.971Z,100.00
2022-12-28T11:11:33.671Z,100.00
2022-12-28T11:14:34.964Z,100.00
2022-12-28T11:17:25.005Z,100.00
2022-12-28T11:19:56.073Z,100.00
2022-12-28T11:22:26.280Z,100.00
2022-12-28T11:24:53.555Z,100.00
2022-12-28T11:27:22.637Z,100.00
2022-12-28T11:29:51.537Z,100.00
2022-12-28T11:32:23.384Z,100.00
2022-12-28T11:34:51.024Z,100.00
2022-12-28T11:37:17.422Z,100.00
2022-12-28T11:39:52.147Z,100.00
2022-12-28T11:42:41.021Z,100.00
2022-12-28T11:45:16.550Z,100.00
2022-12-28T11:47:51.946Z,100.00
2022-12-28T11:50:52.691Z,100.00
2022-12-28T11:53:44.897Z,100.00
2022-12-28T11:56:23.281Z,100.00
2022-12-28T11:58:58.742Z,100.00
2022-12-28T12:01:33.480Z,100.00
2022-12-28T12:04:15.752Z,100.00
2022-12-28T12:06:42.333Z,100.00
2022-12-28T12:09:20.915Z,100.00
2022-12-28T12:11:52.432Z,100.00
2022-12-28T12:14:36.451Z,100.00
2022-12-28T12:17:21.035Z,100.00
2022-12-28T12:19:52.219Z,100.00
2022-12-28T12:22:46.307Z,100.00
2022-12-28T12:25:29.087Z,100.00
2022-12-28T12:28:39.038Z,100.00
2022-12-28T12:31:12.048Z,100.00
2022-12-28T12:33:44.701Z,100.00
2022-12-28T12:36:41.731Z,100.00
2022-12-28T12:39:45.116Z,100.00
2022-12-28T12:42:44.878Z,100.00
2022-12-28T12:45:46.354Z,100.00
2022-12-28T12:48:21.877Z,100.00
2022-12-28T12:51:06.458Z,100.00
2022-12-28T12:53:50.054Z,100.00
2022-12-28T12:56:43.345Z,100.00
2022-12-28T12:59:24.798Z,100.00
2022-12-28T13:02:43.401Z,100.00
2022-12-28T13:05:18.615Z,100.00
2022-12-28T13:07:45.679Z,100.00
2022-12-28T13:10:34.738Z,100.00
2022-12-28T13:13:05.275Z,100.00
2022-12-28T13:15:32.234Z,100.00
2022-12-28T13:18:44.006Z,99.91
2022-12-28T13:21:12.095Z,99.49
2022-12-28T13:23:44.594Z,99.93
2022-12-28T13:26:13.920Z,99.54
2022-12-28T13:28:50.119Z,100.00
2022-12-28T13:31:20.741Z,99.40
2022-12-28T13:33:58.301Z,99.81
2022-12-28T13:36:25.064Z,99.54
2022-12-28T13:39:14.441Z,99.19
2022-12-28T13:41:48.780Z,99.31
2022-12-28T13:44:15.097Z,99.08
2022-12-28T13:46:45.694Z,99.06
2022-12-28T13:49:13.086Z,98.80
2022-12-28T13:51:53.696Z,99.03
2022-12-28T13:54:22.676Z,98.48
2022-12-28T13:56:49.121Z,98.85
2022-12-28T13:59:19.596Z,98.51
2022-12-28T14:01:50.252Z,98.31
2022-12-28T14:04:51.609Z,98.07
2022-12-28T14:07:14.719Z,98.07
2022-12-28T14:09:41.557Z,98.02
2022-12-28T14:12:14.585Z,97.84
2022-12-28T14:14:43.931Z,97.97
2022-12-28T14:17:10.826Z,98.05
2022-12-28T14:19:38.085Z,97.43
2022-12-28T14:22:25.530Z,97.40
2022-12-28T14:25:08.244Z,97.26
2022-12-28T14:27:39.553Z,97.10
2022-12-28T14:30:08.307Z,97.19
2022-12-28T14:32:42.407Z,97.26
2022-12-28T14:35:32.552Z,97.55
2022-12-28T14:38:00.541Z,96.67
2022-12-28T14:40:36.372Z,97.10
2022-12-28T14:43:30.851Z,96.92
2022-12-28T14:46:05.132Z,96.57
2022-12-28T14:48:40.540Z,96.75
2022-12-28T14:54:11.735Z,96.81
2022-12-28T14:56:39.000Z,96.62
2022-12-28T14:59:13.605Z,96.00
2022-12-28T15:00:26.526Z,96.20
2022-12-28T15:01:45.489Z,95.78
2022-12-28T15:04:29.183Z,95.53
2022-12-28T15:06:55.527Z,95.89
2022-12-28T15:09:22.098Z,95.51
2022-12-28T15:11:48.504Z,95.89
2022-12-28T15:14:14.864Z,95.50
2022-12-28T15:16:41.344Z,95.49
2022-12-28T15:19:07.783Z,95.47
2022-12-28T15:21:34.144Z,94.86
2022-12-28T15:24:00.531Z,94.77
2022-12-28T15:26:27.934Z,94.97
2022-12-28T15:28:54.384Z,94.60
2022-12-28T15:31:21.530Z,94.62
2022-12-28T15:33:48.834Z,94.26
2022-12-28T15:36:24.831Z,94.75
2022-12-28T15:38:51.397Z,94.56
2022-12-28T15:41:36.888Z,95.05
2022-12-28T15:44:04.736Z,94.05
2022-12-28T15:46:31.486Z,93.91
2022-12-28T15:49:02.335Z,94.08
2022-12-28T15:51:28.682Z,93.66
2022-12-28T15:53:55.049Z,93.71
2022-12-28T15:56:26.926Z,93.88
2022-12-28T15:58:54.561Z,93.69
2022-12-28T16:01:21.925Z,93.76
2022-12-28T16:03:49.335Z,94.34
2022-12-28T16:06:26.273Z,94.23
2022-12-28T16:08:56.534Z,94.66
2022-12-28T16:11:23.926Z,95.26
2022-12-28T16:13:55.992Z,94.68
2022-12-28T16:16:23.368Z,95.28
2022-12-28T16:18:50.525Z,95.70
2022-12-28T16:21:17.091Z,95.48
2022-12-28T16:23:44.751Z,95.58
2022-12-28T16:26:20.037Z,95.89
2022-12-28T16:28:48.870Z,96.30
2022-12-28T16:31:25.696Z,96.14
2022-12-28T16:33:53.972Z,96.28
2022-12-28T16:36:22.006Z,96.44
2022-12-28T16:38:56.905Z,96.17
2022-12-28T16:41:24.004Z,96.82
2022-12-28T16:43:50.795Z,96.73
2022-12-28T16:46:18.968Z,96.36
2022-12-28T16:48:51.362Z,96.93
2022-12-28T16:51:17.723Z,97.09
2022-12-28T16:53:51.302Z,96.80
2022-12-28T16:56:17.668Z,96.82
2022-12-28T16:58:48.942Z,97.42
2022-12-28T17:01:15.847Z,97.32
2022-12-28T17:03:47.293Z,97.34
2022-12-28T17:06:21.458Z,97.34
2022-12-28T17:08:47.838Z,97.55
2022-12-28T17:11:14.225Z,98.07
2022-12-28T17:13:40.726Z,97.79
2022-12-28T17:16:08.866Z,97.74
2022-12-28T17:18:38.190Z,97.93
2022-12-28T17:21:07.011Z,98.18
2022-12-28T17:23:33.908Z,97.98
2022-12-28T17:26:00.368Z,98.08
2022-12-28T17:28:26.901Z,97.77
2022-12-28T17:31:04.178Z,98.06
2022-12-28T17:33:34.091Z,98.25
2022-12-28T17:36:05.702Z,98.08
2022-12-28T17:38:32.161Z,98.41
2022-12-28T17:41:10.413Z,98.25
2022-12-28T17:43:36.850Z,98.27
2022-12-28T17:46:03.890Z,98.42
2022-12-28T17:48:30.830Z,98.91
2022-12-28T17:50:58.979Z,98.90
2022-12-28T17:53:49.050Z,98.37
2022-12-28T17:56:18.714Z,98.48
2022-12-28T17:58:57.552Z,98.38
2022-12-28T18:01:28.510Z,99.07
2022-12-28T18:03:55.902Z,98.68
2022-12-28T18:06:36.578Z,98.63
2022-12-28T18:09:03.727Z,99.17
2022-12-28T18:11:34.266Z,99.22
2022-12-28T18:14:12.884Z,99.12
2022-12-28T18:16:41.455Z,98.80
2022-12-28T18:19:26.292Z,99.08
2022-12-28T18:22:00.146Z,99.32
2022-12-28T18:24:26.529Z,99.39
2022-12-28T18:27:00.925Z,99.49
2022-12-28T18:29:27.296Z,99.66
2022-12-28T18:31:53.687Z,99.98
2022-12-28T18:34:28.545Z,99.96
2022-12-28T18:36:57.993Z,99.50
2022-12-28T18:39:24.465Z,99.99
2022-12-28T18:41:51.980Z,99.80
2022-12-28T18:44:25.097Z,99.84
2022-12-28T18:46:52.986Z,100.00
2022-12-28T18:49:19.879Z,99.85
2022-12-28T18:51:46.327Z,100.00
2022-12-28T18:54:12.833Z,100.00
2022-12-28T18:56:54.982Z,100.00
2022-12-28T18:59:39.844Z,100.00
2022-12-28T19:02:19.780Z,100.00
2022-12-28T19:04:46.666Z,100.00
2022-12-28T19:07:49.085Z,100.00
2022-12-28T19:10:21.250Z,100.00
2022-12-28T19:12:57.904Z,100.00
2022-12-28T19:15:24.367Z,100.00
2022-12-28T19:17:50.821Z,100.00
2022-12-28T19:20:17.224Z,100.00
2022-12-28T19:22:43.597Z,100.00
2022-12-28T19:25:11.729Z,100.00
2022-12-28T19:27:53.664Z,100.00
2022-12-28T19:30:21.177Z,100.00
2022-12-28T19:32:50.070Z,100.00
2022-12-28T19:35:17.523Z,100.00
2022-12-28T19:37:43.983Z,100.00
2022-12-28T19:40:10.728Z,100.00
2022-12-28T19:42:42.167Z,100.00
2022-12-28T19:45:10.235Z,100.00
2022-12-28T19:47:41.935Z,100.00
2022-12-28T19:50:23.115Z,100.00
2022-12-28T19:52:55.351Z,100.00
2022-12-28T19:55:21.719Z,100.00
2022-12-28T19:57:48.192Z,100.00
2022-12-28T20:00:15.181Z,100.00
2022-12-28T20:02:41.771Z,100.00
2022-12-28T20:05:08.572Z,100.00
2022-12-28T20:07:39.511Z,100.00
2022-12-28T20:10:07.026Z,100.00
2022-12-28T20:12:36.249Z,100.00
2022-12-28T20:15:05.118Z,100.00
2022-12-28T20:17:46.645Z,100.00
2022-12-28T20:20:27.041Z,100.00
2022-12-28T20:22:55.099Z,100.00
2022-12-28T20:25:27.607Z,100.00
2022-12-28T20:28:04.031Z,100.00
2022-12-28T20:30:40.380Z,100.00
2022-12-28T20:33:06.840Z,100.00
2022-12-28T20:35:35.661Z,100.00
2022-12-28T20:38:02.060Z,100.00
2022-12-28T20:40:41.762Z,100.00
2022-12-28T20:43:25.411Z,100.00
2022-12-28T20:45:54.338Z,100.00
2022-12-28T20:48:21.007Z,100.00
2022-12-28T20:51:31.361Z,100.00
2022-12-28T20:53:59.798Z,100.00
2022-12-28T20:56:44.405Z,100.00
2022-12-28T20:59:13.141Z,100.00
2022-12-28T21:01:44.692Z,100.00
2022-12-28T21:04:12.816Z,100.00
2022-12-28T21:06:41.163Z,100.00
2022-12-28T21:09:07.583Z,99.99
2022-12-28T21:11:33.965Z,100.00
2022-12-28T21:14:03.598Z,99.35
2022-12-28T21:16:30.129Z,99.80
2022-12-28T21:18:56.545Z,99.87
2022-12-28T21:21:24.136Z,99.35
2022-12-28T21:23:52.494Z,99.56
2022-12-28T21:26:37.278Z,99.28
2022-12-28T21:29:33.521Z,98.99
2022-12-28T21:32:28.817Z,98.82
2022-12-28T21:34:55.158Z,98.61
2022-12-28T21:37:34.613Z,98.70
2022-12-28T21:40:03.345Z,98.66
2022-12-28T21:42:29.807Z,98.84
2022-12-28T21:44:56.344Z,98.62
2022-12-28T21:47:22.803Z,98.53
2022-12-28T21:50:00.293Z,98.61
2022-12-28T21:52:35.738Z,98.83
2022-12-28T21:55:22.606Z,98.67
2022-12-28T21:57:50.655Z,98.29
2022-12-28T22:00:35.782Z,98.31
2022-12-28T22:03:44.685Z,98.92
2022-12-28T22:06:11.186Z,98.76
2022-12-28T22:08:56.358Z,99.33
2022-12-28T22:11:41.060Z,99.29
2022-12-28T22:14:30.158Z,99.57
2022-12-28T22:16:56.577Z,100.00
2022-12-28T22:19:27.602Z,100.00
2022-12-28T22:21:53.959Z,99.39
2022-12-28T22:24:53.618Z,100.00
2022-12-28T22:27:23.116Z,99.38
2022-12-28T22:29:49.469Z,100.00
2022-12-28T22:32:15.873Z,99.34
2022-12-28T22:34:42.396Z,99.33
2022-12-28T22:37:25.141Z,99.72
2022-12-28T22:39:53.592Z,99.19
2022-12-28T22:42:23.054Z,99.34
2022-12-28T22:44:50.651Z,99.01
2022-12-28T22:47:19.195Z,99.29
2022-12-28T22:49:45.616Z,99.04
2022-12-28T22:52:16.042Z,98.58
2022-12-28T22:54:45.857Z,98.94
2022-12-28T22:57:14.606Z,98.59
2022-12-28T22:59:40.981Z,98.02
2022-12-28T23:02:07.605Z,98.17
2022-12-28T23:04:34.100Z,98.34
2022-12-28T23:07:03.995Z,97.74
2022-12-28T23:09:32.201Z,98.17
2022-12-28T23:11:59.667Z,98.24
2022-12-28T23:14:44.751Z,98.21
2022-12-28T23:17:14.470Z,97.98
2022-12-28T23:20:00.767Z,98.50
2022-12-28T23:22:59.739Z,97.90
2022-12-28T23:25:45.054Z,97.75
2022-12-28T23:28:13.876Z,97.95
2022-12-28T23:30:51.612Z,97.92
2022-12-28T23:33:19.277Z,97.06
2022-12-28T23:35:46.067Z,97.27
2022-12-28T23:38:12.607Z,97.17
2022-12-28T23:40:40.769Z,97.22
2022-12-28T23:43:10.435Z,96.59
2022-12-28T23:45:37.168Z,96.94
2022-12-28T23:48:15.954Z,96.18
2022-12-28T23:50:44.377Z,96.45
2022-12-28T23:53:10.736Z,95.91
2022-12-28T23:55:37.095Z,95.96
2022-12-28T23:58:03.724Z,96.04
